createdAt,value
2022-10-12T00:00:13.210Z,13.40
2022-10-12T00:02:42.172Z,13.50
2022-10-12T00:05:10.201Z,13.50
2022-10-12T00:07:40.077Z,13.40
2022-10-12T00:10:08.750Z,13.40
2022-10-12T00:12:36.543Z,13.40
2022-10-12T00:15:04.765Z,13.40
2022-10-12T00:17:32.583Z,13.30
2022-10-12T00:20:00.420Z,13.20
2022-10-12T00:22:28.236Z,13.30
2022-10-12T00:24:57.324Z,13.30
2022-10-12T00:27:25.088Z,13.30
2022-10-12T00:29:52.856Z,13.20
2022-10-12T00:32:20.719Z,13.20
2022-10-12T00:34:48.507Z,13.30
2022-10-12T00:37:16.248Z,13.20
2022-10-12T00:39:44.012Z,13.20
2022-10-12T00:42:13.972Z,13.10
2022-10-12T00:44:44.335Z,13.10
2022-10-12T00:47:25.246Z,13.10
2022-10-12T00:49:58.733Z,13.00
2022-10-12T00:52:32.402Z,13.10
2022-10-12T00:55:01.943Z,13.10
2022-10-12T00:57:31.208Z,13.00
2022-10-12T01:00:03.356Z,13.00
2022-10-12T01:02:33.868Z,13.00
2022-10-12T01:05:02.488Z,13.00
2022-10-12T01:07:30.256Z,13.00
2022-10-12T01:09:58.185Z,12.90
2022-10-12T01:12:26.336Z,12.90
2022-10-12T01:14:55.829Z,13.00
2022-10-12T01:17:35.866Z,12.90
2022-10-12T01:20:45.079Z,12.90
2022-10-12T01:23:57.401Z,12.80
2022-10-12T01:26:47.045Z,12.80
2022-10-12T01:29:33.006Z,12.80
2022-10-12T01:32:07.707Z,12.80
2022-10-12T01:34:44.987Z,12.80
2022-10-12T01:37:20.263Z,12.80
2022-10-12T01:39:53.214Z,12.70
2022-10-12T01:42:25.536Z,12.60
2022-10-12T01:45:02.454Z,12.60
2022-10-12T01:47:32.008Z,12.70
2022-10-12T01:50:01.091Z,12.60
2022-10-12T01:52:30.631Z,12.70
2022-10-12T01:55:09.152Z,12.60
2022-10-12T01:57:46.768Z,12.60
2022-10-12T02:00:16.990Z,12.60
2022-10-12T02:03:00.153Z,12.60
2022-10-12T02:05:36.809Z,12.60
2022-10-12T02:08:11.490Z,12.50
2022-10-12T02:10:45.277Z,12.50
2022-10-12T02:13:16.109Z,12.50
2022-10-12T02:15:45.815Z,12.90
2022-10-12T02:18:18.460Z,12.50
2022-10-12T02:20:48.083Z,12.60
2022-10-12T02:23:17.631Z,12.50
2022-10-12T02:25:47.204Z,12.50
2022-10-12T02:28:19.492Z,12.50
2022-10-12T02:30:53.421Z,12.40
2022-10-12T02:33:26.718Z,12.40
2022-10-12T02:36:00.142Z,12.30
2022-10-12T02:38:32.920Z,12.40
2022-10-12T02:41:06.448Z,12.30
2022-10-12T02:43:38.903Z,12.30
2022-10-12T02:46:09.373Z,12.30
2022-10-12T02:48:41.384Z,12.30
2022-10-12T02:51:10.487Z,12.30
2022-10-12T02:53:38.868Z,12.30
2022-10-12T02:56:11.164Z,12.30
2022-10-12T02:58:38.956Z,12.30
2022-10-12T03:01:06.854Z,12.20
2022-10-12T03:03:34.608Z,12.30
2022-10-12T03:06:03.804Z,12.20
2022-10-12T03:08:31.883Z,12.20
2022-10-12T03:11:02.424Z,12.20
2022-10-12T03:13:30.405Z,12.10
2022-10-12T03:16:03.448Z,12.20
2022-10-12T03:18:31.399Z,12.20
2022-10-12T03:20:59.319Z,12.20
2022-10-12T03:23:28.587Z,12.20
2022-10-12T03:25:56.324Z,12.30
2022-10-12T03:28:24.177Z,12.20
2022-10-12T03:30:51.975Z,12.20
2022-10-12T03:33:20.117Z,12.20
2022-10-12T03:35:48.532Z,12.20
2022-10-12T03:38:16.772Z,12.10
2022-10-12T03:40:47.057Z,12.20
2022-10-12T03:43:15.221Z,12.10
2022-10-12T03:45:43.191Z,12.20
2022-10-12T03:48:11.167Z,12.10
2022-10-12T03:50:40.075Z,12.10
2022-10-12T03:53:08.248Z,12.10
2022-10-12T03:55:36.024Z,12.10
2022-10-12T03:58:05.184Z,12.10
2022-10-12T04:00:32.984Z,12.10
2022-10-12T04:03:02.114Z,12.10
2022-10-12T04:05:29.959Z,12.10
2022-10-12T04:07:57.941Z,12.10
2022-10-12T04:10:25.968Z,12.10
2022-10-12T04:12:53.748Z,12.20
2022-10-12T04:17:55.586Z,12.10
2022-10-12T04:20:23.362Z,12.20
2022-10-12T04:22:51.133Z,12.20
2022-10-12T04:25:18.988Z,12.10
2022-10-12T04:27:46.741Z,12.20
2022-10-12T04:30:14.791Z,12.20
2022-10-12T04:32:43.947Z,12.20
2022-10-12T04:35:12.164Z,12.20
2022-10-12T04:37:40.076Z,12.20
2022-10-12T04:40:09.349Z,12.20
2022-10-12T04:42:37.128Z,12.10
2022-10-12T04:45:05.499Z,12.10
2022-10-12T04:47:35.758Z,12.20
2022-10-12T04:50:05.649Z,12.20
2022-10-12T04:52:33.498Z,12.20
2022-10-12T04:55:01.465Z,12.20
2022-10-12T04:57:29.255Z,12.10
2022-10-12T04:59:57.030Z,12.20
2022-10-12T05:02:24.806Z,12.20
2022-10-12T05:04:52.750Z,12.20
2022-10-12T05:07:21.842Z,12.20
2022-10-12T05:09:49.584Z,12.20
2022-10-12T05:12:18.150Z,12.20
2022-10-12T05:14:45.922Z,12.30
2022-10-12T05:17:13.710Z,12.30
2022-10-12T05:19:41.475Z,12.30
2022-10-12T05:22:09.348Z,12.30
2022-10-12T05:24:38.544Z,12.20
2022-10-12T05:27:06.289Z,12.30
2022-10-12T05:29:34.061Z,12.20
2022-10-12T05:32:01.900Z,12.30
2022-10-12T05:34:29.711Z,12.20
2022-10-12T05:36:58.215Z,12.30
2022-10-12T05:39:26.088Z,12.20
2022-10-12T05:41:55.846Z,12.20
2022-10-12T05:44:23.662Z,12.20
2022-10-12T05:46:51.437Z,12.20
2022-10-12T05:49:19.200Z,12.20
2022-10-12T05:51:46.975Z,12.10
2022-10-12T05:54:14.759Z,12.10
2022-10-12T05:56:42.566Z,12.20
2022-10-12T05:59:11.716Z,12.20
2022-10-12T06:01:39.555Z,12.10
2022-10-12T06:04:07.342Z,12.00
2022-10-12T06:06:35.106Z,12.00
2022-10-12T06:09:02.976Z,12.00
2022-10-12T06:11:34.021Z,12.10
2022-10-12T06:14:04.133Z,12.10
2022-10-12T06:16:33.258Z,12.00
2022-10-12T06:19:01.216Z,12.00
2022-10-12T06:21:33.606Z,12.00
2022-10-12T06:24:02.268Z,12.00
2022-10-12T06:26:30.096Z,12.00
2022-10-12T06:28:57.958Z,12.10
2022-10-12T06:31:25.816Z,12.10
2022-10-12T06:33:54.946Z,12.10
2022-10-12T06:36:23.634Z,12.10
2022-10-12T06:38:51.524Z,12.00
2022-10-12T06:41:19.332Z,12.10
2022-10-12T06:43:47.044Z,12.10
2022-10-12T06:46:14.812Z,12.10
2022-10-12T06:48:42.574Z,12.10
2022-10-12T06:51:11.646Z,12.10
2022-10-12T06:53:39.406Z,12.10
2022-10-12T06:56:07.745Z,12.10
2022-10-12T06:58:35.571Z,12.20
2022-10-12T07:01:05.321Z,12.20
2022-10-12T07:03:33.502Z,12.20
2022-10-12T07:06:07.472Z,12.20
2022-10-12T07:08:36.683Z,12.20
2022-10-12T07:11:06.200Z,12.20
2022-10-12T07:13:34.643Z,12.30
2022-10-12T07:16:02.637Z,12.30
2022-10-12T07:18:30.391Z,12.30
2022-10-12T07:20:59.577Z,12.30
2022-10-12T07:23:27.687Z,12.30
2022-10-12T07:25:56.832Z,12.30
2022-10-12T07:28:24.879Z,12.40
2022-10-12T07:30:53.199Z,12.40
2022-10-12T07:33:21.070Z,12.50
2022-10-12T07:36:13.157Z,12.50
2022-10-12T07:38:44.359Z,12.60
2022-10-12T07:41:14.372Z,12.60
2022-10-12T07:43:42.849Z,12.80
2022-10-12T07:46:11.203Z,12.80
2022-10-12T07:48:44.510Z,12.90
2022-10-12T07:51:16.831Z,12.90
2022-10-12T07:53:44.636Z,13.10
2022-10-12T07:56:15.939Z,13.10
2022-10-12T07:58:43.995Z,13.30
2022-10-12T08:01:11.755Z,13.30
2022-10-12T08:03:39.500Z,13.50
2022-10-12T08:06:11.534Z,13.40
2022-10-12T08:08:39.565Z,13.40
2022-10-12T08:11:08.498Z,13.50
2022-10-12T08:13:38.318Z,13.60
2022-10-12T08:16:09.009Z,13.60
2022-10-12T08:18:36.785Z,13.60
2022-10-12T08:21:05.700Z,13.70
2022-10-12T08:23:34.700Z,13.80
2022-10-12T08:26:02.927Z,13.80
2022-10-12T08:28:31.095Z,13.90
2022-10-12T08:31:00.889Z,14.00
2022-10-12T08:33:30.640Z,14.00
2022-10-12T08:36:03.003Z,14.10
2022-10-12T08:38:31.266Z,14.20
2022-10-12T08:41:05.870Z,14.20
2022-10-12T08:43:45.516Z,14.30
2022-10-12T08:46:14.710Z,14.30
2022-10-12T08:48:48.827Z,14.40
2022-10-12T08:51:22.012Z,14.40
2022-10-12T08:53:55.375Z,14.40
2022-10-12T08:56:23.888Z,14.40
2022-10-12T08:58:53.770Z,14.40
2022-10-12T09:01:30.435Z,14.50
2022-10-12T09:04:17.949Z,14.60
2022-10-12T09:06:50.223Z,14.60
2022-10-12T09:09:43.959Z,14.60
2022-10-12T09:12:27.323Z,14.70
2022-10-12T09:15:00.363Z,14.70
2022-10-12T09:17:38.244Z,14.70
2022-10-12T09:20:16.633Z,14.80
2022-10-12T09:22:48.627Z,14.90
2022-10-12T09:25:23.572Z,14.90
2022-10-12T09:27:52.147Z,15.00
2022-10-12T09:30:21.837Z,14.90
2022-10-12T09:33:13.943Z,15.10
2022-10-12T09:35:42.784Z,15.20
2022-10-12T09:38:11.840Z,15.20
2022-10-12T09:40:40.380Z,15.30
2022-10-12T09:43:08.796Z,15.50
2022-10-12T09:45:38.231Z,15.60
2022-10-12T09:48:16.422Z,15.70
2022-10-12T09:50:48.607Z,15.80
2022-10-12T09:53:28.243Z,15.90
2022-10-12T09:55:59.646Z,16.20
2022-10-12T09:58:28.901Z,16.40
2022-10-12T10:01:13.361Z,16.50
2022-10-12T10:03:42.795Z,16.60
2022-10-12T10:06:10.561Z,16.70
2022-10-12T10:08:43.476Z,16.80
2022-10-12T10:11:22.327Z,16.90
2022-10-12T10:13:53.103Z,16.90
2022-10-12T10:16:23.190Z,17.00
2022-10-12T10:18:57.532Z,16.90
2022-10-12T10:21:28.688Z,17.10
2022-10-12T10:23:58.808Z,16.80
2022-10-12T10:26:28.924Z,16.80
2022-10-12T10:29:15.316Z,16.80
2022-10-12T10:31:45.933Z,16.80
2022-10-12T10:34:22.980Z,16.80
2022-10-12T10:36:52.492Z,16.90
2022-10-12T10:39:23.797Z,16.90
2022-10-12T10:41:53.253Z,16.90
2022-10-12T10:44:27.027Z,17.00
2022-10-12T10:46:56.096Z,17.10
2022-10-12T10:49:34.044Z,17.10
2022-10-12T10:52:03.954Z,17.10
2022-10-12T10:54:34.454Z,17.00
2022-10-12T10:57:05.188Z,17.10
2022-10-12T10:59:48.033Z,17.10
2022-10-12T11:02:21.964Z,17.00
2022-10-12T11:04:54.964Z,17.00
2022-10-12T11:07:28.729Z,17.00
2022-10-12T11:09:59.513Z,17.00
2022-10-12T11:12:31.767Z,17.00
2022-10-12T11:15:07.016Z,17.00
2022-10-12T11:17:38.155Z,17.00
2022-10-12T11:20:35.010Z,17.10
2022-10-12T11:23:05.834Z,17.10
2022-10-12T11:25:40.428Z,17.10
2022-10-12T11:28:09.287Z,17.10
2022-10-12T11:30:41.781Z,17.00
2022-10-12T11:33:15.171Z,17.10
2022-10-12T11:35:46.406Z,17.00
2022-10-12T11:38:21.212Z,17.00
2022-10-12T11:41:13.791Z,17.20
2022-10-12T11:43:47.380Z,17.20
2022-10-12T11:46:19.930Z,17.20
2022-10-12T11:48:52.760Z,17.20
2022-10-12T11:51:21.899Z,17.10
2022-10-12T11:53:55.906Z,17.20
2022-10-12T11:56:28.674Z,17.30
2022-10-12T11:59:03.776Z,17.30
2022-10-12T12:01:44.219Z,17.40
2022-10-12T12:07:44.393Z,17.30
2022-10-12T12:10:54.771Z,17.40
2022-10-12T12:13:26.971Z,17.30
2022-10-12T12:16:32.594Z,17.30
2022-10-12T12:19:37.699Z,17.40
2022-10-12T12:22:18.044Z,17.30
2022-10-12T12:25:06.801Z,17.20
2022-10-12T12:27:38.293Z,17.30
2022-10-12T12:30:22.248Z,17.30
2022-10-12T12:32:53.459Z,17.20
2022-10-12T12:35:25.344Z,17.30
2022-10-12T12:38:08.208Z,17.20
2022-10-12T12:40:37.860Z,17.30
2022-10-12T12:43:35.145Z,17.20
2022-10-12T12:46:11.809Z,17.10
2022-10-12T12:49:01.922Z,17.10
2022-10-12T12:51:41.707Z,17.20
2022-10-12T12:54:17.344Z,17.30
2022-10-12T12:57:01.917Z,17.30
2022-10-12T13:00:06.690Z,17.30
2022-10-12T13:03:11.462Z,17.30
2022-10-12T13:06:18.101Z,17.30
2022-10-12T13:09:14.380Z,17.30
2022-10-12T13:11:55.350Z,17.50
2022-10-12T13:14:42.168Z,17.40
2022-10-12T13:17:34.381Z,17.40
2022-10-12T13:20:08.274Z,17.50
2022-10-12T13:22:36.343Z,17.60
2022-10-12T13:25:08.541Z,17.70
2022-10-12T13:27:46.068Z,17.70
2022-10-12T13:30:21.763Z,17.70
2022-10-12T13:32:57.012Z,17.60
2022-10-12T13:35:32.435Z,17.60
2022-10-12T13:38:05.819Z,17.60
2022-10-12T13:40:39.401Z,17.50
2022-10-12T13:43:29.875Z,17.40
2022-10-12T13:45:57.849Z,17.50
2022-10-12T13:48:53.734Z,17.50
2022-10-12T13:51:24.008Z,17.60
2022-10-12T13:53:51.963Z,17.60
2022-10-12T13:56:21.867Z,17.60
2022-10-12T13:58:54.687Z,17.50
2022-10-12T14:01:22.481Z,17.60
2022-10-12T14:03:50.315Z,17.50
2022-10-12T14:06:29.645Z,17.60
2022-10-12T14:08:58.900Z,17.60
2022-10-12T14:11:27.574Z,17.70
2022-10-12T14:13:57.807Z,17.70
2022-10-12T14:16:25.655Z,17.60
2022-10-12T14:18:53.473Z,17.60
2022-10-12T14:21:23.927Z,17.60
2022-10-12T14:23:54.024Z,17.70
2022-10-12T14:26:28.991Z,17.60
2022-10-12T14:28:59.345Z,17.60
2022-10-12T14:31:52.069Z,17.50
2022-10-12T14:34:37.839Z,17.50
2022-10-12T14:37:20.443Z,17.60
2022-10-12T14:39:50.046Z,17.50
2022-10-12T14:42:21.356Z,17.50
2022-10-12T14:44:50.637Z,17.40
2022-10-12T14:47:22.663Z,17.40
2022-10-12T14:49:53.590Z,17.60
2022-10-12T14:52:24.027Z,17.60
2022-10-12T14:54:52.533Z,17.50
2022-10-12T14:57:21.427Z,17.40
2022-10-12T14:59:51.056Z,17.30
2022-10-12T15:02:21.378Z,17.50
2022-10-12T15:04:49.588Z,17.30
2022-10-12T15:07:19.753Z,17.30
2022-10-12T15:09:48.122Z,17.30
